This is the latest recevied weather packets stored in our database for station/object Aulendorf. If no packets are shown the sender has not sent any weather packets the latest 10 day(s).
| Time | Temp. | Humidity | Pressure | Rain* | Wind** | Luminosity | Snow |
|---|---|---|---|---|---|---|---|
| 1778103130 | 8.33° C | 91% | 1009.1 hPa | 2.29 mm | - | - | - |
| 1778101330 | 8.33° C | 90% | 1008.9 hPa | 2.29 mm | - | - | - |
| 1778099531 | 8.89° C | 89% | 1008.9 hPa | 2.29 mm | - | - | - |
| 1778097730 | 8.89° C | 89% | 1008.8 hPa | 2.29 mm | - | - | - |
| 1778095935 | 9.44° C | 90% | 1008.6 hPa | 2.29 mm | - | - | - |
| 1778094131 | 9.44° C | 89% | 1008.2 hPa | 2.29 mm | - | - | - |
| 1778092329 | 10° C | 88% | 1007.7 hPa | 2.29 mm | - | - | - |
| 1778090536 | 10° C | 87% | 1007.6 hPa | 2.29 mm | - | - | - |
| 1778088730 | 10° C | 87% | 1007.4 hPa | 2.29 mm | - | - | - |
| 1778086935 | 10° C | 88% | 1006.7 hPa | 2.29 mm | - | - | - |
| 1778085130 | 10° C | 87% | 1006.6 hPa | 2.29 mm | - | - | - |
| 1778083330 | 10° C | 89% | 1006.7 hPa | 2.29 mm | - | - | - |
| 1778081530 | 9.44° C | 89% | 1006.1 hPa | 2.29 mm | - | - | - |
| 1778079730 | 10.56° C | 86% | 1006.3 hPa | 1.02 mm | - | - | - |
| 1778077930 | 13.33° C | 75% | 1005 hPa | 0.25 mm | - | - | - |
| 1778076131 | 16.67° C | 65% | 1003.9 hPa | 0.25 mm | - | - | - |
| 1778074331 | 17.78° C | 63% | 1004 hPa | 0.25 mm | - | - | - |
| 1778072531 | 15.56° C | 68% | 1004.2 hPa | 0.25 mm | - | - | - |
| 1778070730 | 16.11° C | 68% | 1004 hPa | 0.25 mm | - | - | - |
| 1778068930 | 16.11° C | 65% | 1003.7 hPa | 0.25 mm | - | - | - |
| 1778067137 | 16.11° C | 67% | 1003.9 hPa | 0.25 mm | - | - | - |
| 1778065330 | 16.11° C | 64% | 1004.2 hPa | 0.25 mm | - | - | - |
| 1778061734 | 14.44° C | 76% | 1004.5 hPa | 0.25 mm | - | - | - |
| 1778059931 | 13.89° C | 76% | 1004.7 hPa | 0 mm | - | - | - |
| 1778058131 | 14.44° C | 73% | 1004.9 hPa | 0 mm | - | - | - |
* Rain since midnight (hover to see other rain measurements)
** Current wind speed in m/s (hover to see current wind gust speed)